createdAt,value
2018-11-07T00:00:34.655Z,10.34
2018-11-07T00:01:34.603Z,10.38
2018-11-07T00:02:34.578Z,10.37
2018-11-07T00:03:34.498Z,10.33
2018-11-07T00:04:34.448Z,10.43
2018-11-07T00:05:34.418Z,10.43
2018-11-07T00:06:34.340Z,10.46
2018-11-07T00:07:34.333Z,10.31
2018-11-07T00:08:34.316Z,10.37
2018-11-07T00:09:34.188Z,10.45
2018-11-07T00:10:34.142Z,10.40
2018-11-07T00:11:34.088Z,10.38
2018-11-07T00:12:34.059Z,10.37
2018-11-07T00:13:33.981Z,10.40
2018-11-07T00:14:33.932Z,10.48
2018-11-07T00:15:33.878Z,10.52
2018-11-07T00:16:33.829Z,10.45
2018-11-07T00:17:33.801Z,10.52
2018-11-07T00:18:33.726Z,10.52
2018-11-07T00:19:33.750Z,10.48
2018-11-07T00:20:33.622Z,10.46
2018-11-07T00:21:33.575Z,10.56
2018-11-07T00:22:33.550Z,10.48
2018-11-07T00:23:33.464Z,10.52
2018-11-07T00:24:33.418Z,10.53
2018-11-07T00:25:33.370Z,10.43
2018-11-07T00:26:33.404Z,10.53
2018-11-07T00:27:33.287Z,10.45
2018-11-07T00:28:33.215Z,10.45
2018-11-07T00:29:33.161Z,10.40
2018-11-07T00:30:33.111Z,10.37
2018-11-07T00:31:33.065Z,10.40
2018-11-07T00:32:33.032Z,10.33
2018-11-07T00:33:32.957Z,10.34
2018-11-07T00:34:32.905Z,10.19
2018-11-07T00:35:32.855Z,10.28
2018-11-07T00:36:32.801Z,10.28
2018-11-07T00:37:32.772Z,10.26
2018-11-07T00:38:32.709Z,10.27
2018-11-07T00:39:32.649Z,10.22
2018-11-07T00:40:32.593Z,10.16
2018-11-07T00:41:32.548Z,10.15
2018-11-07T00:42:32.522Z,10.15
2018-11-07T00:43:32.445Z,10.15
2018-11-07T00:44:32.389Z,10.12
2018-11-07T00:45:32.345Z,10.08
2018-11-07T00:46:32.291Z,10.08
2018-11-07T00:47:32.261Z,10.04
2018-11-07T00:48:32.185Z,10.12
2018-11-07T00:49:32.135Z,10.09
2018-11-07T00:50:32.085Z,10.12
2018-11-07T00:51:32.034Z,10.02
2018-11-07T00:52:32.006Z,10.08
2018-11-07T00:53:31.932Z,10.10
2018-11-07T00:54:31.900Z,10.09
2018-11-07T00:55:31.827Z,10.16
2018-11-07T00:56:31.822Z,10.08
2018-11-07T00:57:31.749Z,10.10
2018-11-07T00:58:31.671Z,10.12
2018-11-07T00:59:31.626Z,10.04
2018-11-07T01:00:31.571Z,10.09
2018-11-07T01:01:31.514Z,10.06
2018-11-07T01:02:31.485Z,10.06
2018-11-07T01:03:31.413Z,10.16
2018-11-07T01:04:31.359Z,10.00
2018-11-07T01:05:31.311Z,10.02
2018-11-07T01:06:31.261Z,9.97
2018-11-07T01:07:31.247Z,9.88
2018-11-07T01:08:31.156Z,9.97
2018-11-07T01:09:31.172Z,9.97
2018-11-07T01:10:31.054Z,9.90
2018-11-07T01:11:31.002Z,9.94
2018-11-07T01:12:30.948Z,9.90
2018-11-07T01:13:30.920Z,9.86
2018-11-07T01:14:30.849Z,9.93
2018-11-07T01:15:30.798Z,9.83
2018-11-07T01:16:30.775Z,9.86
2018-11-07T01:17:30.693Z,9.90
2018-11-07T01:18:30.661Z,9.83
2018-11-07T01:19:30.592Z,9.85
2018-11-07T01:20:30.540Z,9.90
2018-11-07T01:21:30.490Z,9.86
2018-11-07T01:22:30.436Z,9.83
2018-11-07T01:23:30.403Z,9.77
2018-11-07T01:24:30.331Z,9.75
2018-11-07T01:25:30.278Z,9.75
2018-11-07T01:26:30.227Z,9.75
2018-11-07T01:27:30.174Z,9.77
2018-11-07T01:28:30.147Z,9.79
2018-11-07T01:29:30.077Z,9.72
2018-11-07T01:30:30.024Z,9.76
2018-11-07T01:31:29.969Z,9.76
2018-11-07T01:32:29.920Z,9.85
2018-11-07T01:33:29.890Z,9.79
2018-11-07T01:34:29.814Z,9.83
2018-11-07T01:35:29.762Z,9.77
2018-11-07T01:36:29.717Z,9.82
2018-11-07T01:37:29.659Z,9.80
2018-11-07T01:38:29.635Z,9.79
2018-11-07T01:39:29.557Z,9.80
2018-11-07T01:40:29.504Z,9.79
2018-11-07T01:41:29.478Z,9.82
2018-11-07T01:42:29.404Z,9.77
2018-11-07T01:43:29.382Z,9.75
2018-11-07T01:44:29.301Z,9.82
2018-11-07T01:45:29.248Z,9.83
2018-11-07T01:46:29.199Z,9.82
2018-11-07T01:47:29.142Z,9.80
2018-11-07T01:48:29.112Z,9.77
2018-11-07T01:49:29.038Z,9.76
2018-11-07T01:50:28.986Z,9.67
2018-11-07T01:51:28.939Z,9.70
2018-11-07T01:52:28.884Z,9.69
2018-11-07T01:53:28.864Z,9.65
2018-11-07T01:54:28.780Z,9.62
2018-11-07T01:55:28.736Z,9.57
2018-11-07T01:56:28.680Z,9.65
2018-11-07T01:57:28.626Z,9.52
2018-11-07T01:58:28.600Z,9.52
2018-11-07T01:59:28.522Z,9.47
2018-11-07T02:00:28.468Z,9.51
2018-11-07T02:01:28.427Z,9.39
2018-11-07T02:02:28.370Z,9.46
2018-11-07T02:03:28.338Z,9.46
2018-11-07T02:04:28.264Z,9.44
2018-11-07T02:05:35.448Z,9.29
2018-11-07T02:06:28.164Z,9.34
2018-11-07T02:07:28.107Z,9.37
2018-11-07T02:08:28.084Z,9.34
2018-11-07T02:09:28.007Z,9.28
2018-11-07T02:10:27.951Z,9.24
2018-11-07T02:11:27.906Z,9.21
2018-11-07T02:12:27.850Z,9.25
2018-11-07T02:13:27.852Z,9.19
2018-11-07T02:14:27.745Z,9.15
2018-11-07T02:15:27.696Z,9.15
2018-11-07T02:16:27.643Z,9.19
2018-11-07T02:17:27.591Z,9.08
2018-11-07T02:18:27.565Z,9.15
2018-11-07T02:19:27.520Z,9.15
2018-11-07T02:20:27.470Z,9.18
2018-11-07T02:21:27.385Z,9.14
2018-11-07T02:22:27.330Z,9.15
2018-11-07T02:23:27.272Z,9.21
2018-11-07T02:24:27.251Z,9.25
2018-11-07T02:25:27.172Z,9.22
2018-11-07T02:26:27.163Z,9.21
2018-11-07T02:27:27.075Z,9.18
2018-11-07T02:28:27.010Z,9.14
2018-11-07T02:29:26.991Z,9.15
2018-11-07T02:30:26.909Z,9.16
2018-11-07T02:31:26.858Z,9.18
2018-11-07T02:32:26.805Z,9.28
2018-11-07T02:33:26.760Z,9.28
2018-11-07T02:34:26.731Z,9.26
2018-11-07T02:35:26.655Z,9.28
2018-11-07T02:36:26.602Z,9.24
2018-11-07T02:37:26.547Z,9.25
2018-11-07T02:38:26.497Z,9.28
2018-11-07T02:39:26.464Z,9.32
2018-11-07T02:40:26.388Z,9.34
2018-11-07T02:41:26.335Z,9.32
2018-11-07T02:42:26.304Z,9.26
2018-11-07T02:43:26.236Z,9.22
2018-11-07T02:44:26.205Z,9.32
2018-11-07T02:45:26.131Z,9.34
2018-11-07T02:46:26.076Z,9.24
2018-11-07T02:47:26.024Z,9.32
2018-11-07T02:48:25.976Z,9.29
2018-11-07T02:49:25.944Z,9.33
2018-11-07T02:50:25.868Z,9.29
2018-11-07T02:51:25.818Z,9.36
2018-11-07T02:52:25.763Z,9.34
2018-11-07T02:53:25.766Z,9.39
2018-11-07T02:54:25.691Z,9.33
2018-11-07T02:55:25.617Z,9.37
2018-11-07T02:56:25.559Z,9.42
2018-11-07T02:57:25.506Z,9.49
2018-11-07T02:58:26.551Z,9.52
2018-11-07T02:59:25.426Z,9.46
2018-11-07T03:00:25.349Z,9.46
2018-11-07T03:01:25.382Z,9.47
2018-11-07T03:02:25.251Z,9.43
2018-11-07T03:03:25.194Z,9.47
2018-11-07T03:04:25.166Z,9.49
2018-11-07T03:05:25.092Z,9.49
2018-11-07T03:06:25.043Z,9.44
2018-11-07T03:07:24.993Z,9.43
2018-11-07T03:08:24.934Z,9.49
2018-11-07T03:09:24.905Z,9.52
2018-11-07T03:10:24.839Z,9.52
2018-11-07T03:11:24.778Z,9.51
2018-11-07T03:12:24.724Z,9.46
2018-11-07T03:13:24.675Z,9.51
2018-11-07T03:14:24.650Z,9.51
2018-11-07T03:15:24.569Z,9.49
2018-11-07T03:16:24.517Z,9.52
2018-11-07T03:17:24.481Z,9.51
2018-11-07T03:18:24.421Z,9.54
2018-11-07T03:19:24.399Z,9.57
2018-11-07T03:20:24.312Z,9.58
2018-11-07T03:21:24.284Z,9.51
2018-11-07T03:22:24.207Z,9.64
2018-11-07T03:23:24.156Z,9.62
2018-11-07T03:24:24.126Z,9.62
2018-11-07T03:25:24.052Z,9.65
2018-11-07T03:26:24.004Z,9.61
2018-11-07T03:27:23.952Z,9.58
2018-11-07T03:28:23.897Z,9.61
2018-11-07T03:29:23.872Z,9.61
2018-11-07T03:30:23.807Z,9.58
2018-11-07T03:31:23.744Z,9.65
2018-11-07T03:32:23.691Z,9.65
2018-11-07T03:33:23.638Z,9.70
2018-11-07T03:34:23.615Z,9.64
2018-11-07T03:35:23.536Z,9.65
2018-11-07T03:36:23.512Z,9.54
2018-11-07T03:37:23.432Z,9.65
2018-11-07T03:38:23.381Z,9.61
2018-11-07T03:39:23.373Z,9.67
2018-11-07T03:40:23.278Z,9.76
2018-11-07T03:41:23.229Z,9.65
2018-11-07T03:42:23.175Z,9.61
2018-11-07T03:43:23.125Z,9.65
2018-11-07T03:44:23.071Z,9.67
2018-11-07T03:45:23.042Z,9.62
2018-11-07T03:46:22.971Z,9.65
2018-11-07T03:47:22.916Z,9.65
2018-11-07T03:48:22.864Z,9.75
2018-11-07T03:49:22.807Z,9.61
2018-11-07T03:50:22.787Z,9.64
2018-11-07T03:51:22.708Z,9.70
2018-11-07T03:52:22.657Z,9.64
2018-11-07T03:53:22.709Z,9.67
2018-11-07T03:54:22.554Z,9.65
2018-11-07T03:55:22.526Z,9.69
2018-11-07T03:56:22.452Z,9.59
2018-11-07T03:57:22.400Z,9.65
2018-11-07T03:58:22.347Z,9.58
2018-11-07T03:59:22.297Z,9.64
2018-11-07T04:00:22.269Z,9.62
2018-11-07T04:01:22.191Z,9.52
2018-11-07T04:02:22.141Z,9.54
2018-11-07T04:03:22.086Z,9.58
2018-11-07T04:04:22.041Z,9.57
2018-11-07T04:05:22.008Z,9.52
2018-11-07T04:06:21.934Z,9.52
2018-11-07T04:07:21.884Z,9.52
2018-11-07T04:08:21.830Z,9.52
2018-11-07T04:09:21.776Z,9.51
2018-11-07T04:10:21.752Z,9.47
2018-11-07T04:11:21.672Z,9.44
2018-11-07T04:12:21.623Z,9.52
2018-11-07T04:13:21.566Z,9.44
2018-11-07T04:14:21.518Z,9.46
2018-11-07T04:15:21.497Z,9.44
2018-11-07T04:16:21.414Z,9.42
2018-11-07T04:17:21.363Z,9.52
2018-11-07T04:18:21.309Z,9.46
2018-11-07T04:19:21.261Z,9.42
2018-11-07T04:20:21.230Z,9.47
2018-11-07T04:21:21.152Z,9.47
2018-11-07T04:22:21.104Z,9.44
2018-11-07T04:23:21.059Z,9.49
2018-11-07T04:24:20.997Z,9.46
2018-11-07T04:25:20.971Z,9.47
2018-11-07T04:26:20.895Z,9.46
2018-11-07T04:27:20.842Z,9.46
2018-11-07T04:28:20.793Z,9.36
2018-11-07T04:29:20.741Z,9.52
2018-11-07T04:30:20.710Z,9.52
2018-11-07T04:31:20.636Z,9.49
2018-11-07T04:32:20.582Z,9.52
2018-11-07T04:33:20.536Z,9.47
2018-11-07T04:34:20.484Z,9.43
2018-11-07T04:35:20.454Z,9.44
2018-11-07T04:36:20.380Z,9.49
2018-11-07T04:37:20.324Z,9.46
2018-11-07T04:38:20.271Z,9.51
2018-11-07T04:39:20.220Z,9.54
2018-11-07T04:40:20.193Z,9.44
2018-11-07T04:41:20.114Z,9.47
2018-11-07T04:42:20.063Z,9.49
2018-11-07T04:43:20.013Z,9.46
2018-11-07T04:44:19.957Z,9.49
2018-11-07T04:45:19.930Z,9.46
2018-11-07T04:46:19.858Z,9.52
2018-11-07T04:47:19.804Z,9.46
2018-11-07T04:48:19.756Z,9.47
2018-11-07T04:49:19.702Z,9.47
2018-11-07T04:50:19.674Z,9.43
2018-11-07T04:51:19.601Z,9.39
2018-11-07T04:52:19.545Z,9.34
2018-11-07T04:53:19.492Z,9.32
2018-11-07T04:54:19.442Z,9.29
2018-11-07T04:55:19.412Z,9.34
2018-11-07T04:56:19.342Z,9.37
2018-11-07T04:57:19.285Z,9.24
2018-11-07T04:58:19.233Z,9.22
2018-11-07T04:59:19.182Z,9.18
2018-11-07T05:00:19.229Z,9.11
2018-11-07T05:01:19.076Z,9.03
2018-11-07T05:02:19.029Z,9.10
2018-11-07T05:03:18.974Z,8.98
2018-11-07T05:04:18.921Z,9.06
2018-11-07T05:05:18.919Z,9.00
2018-11-07T05:06:18.819Z,9.08
2018-11-07T05:07:18.769Z,8.99
2018-11-07T05:08:18.714Z,9.00
2018-11-07T05:09:18.666Z,8.98
2018-11-07T05:10:18.611Z,9.00
2018-11-07T05:11:18.580Z,8.98
2018-11-07T05:12:18.506Z,8.99
2018-11-07T05:13:18.450Z,8.91
2018-11-07T05:14:18.400Z,8.90
2018-11-07T05:15:18.353Z,8.90
2018-11-07T05:16:18.321Z,8.93
2018-11-07T05:17:18.248Z,8.95
2018-11-07T05:18:18.195Z,8.98
2018-11-07T05:19:18.142Z,8.98
2018-11-07T05:20:18.090Z,8.98
2018-11-07T05:21:18.063Z,8.99
2018-11-07T05:22:17.988Z,8.99
2018-11-07T05:23:17.936Z,9.00
2018-11-07T05:24:17.881Z,9.02
2018-11-07T05:25:17.835Z,9.00
2018-11-07T05:26:17.843Z,8.99
2018-11-07T05:27:17.723Z,9.10
2018-11-07T05:28:17.668Z,9.06
2018-11-07T05:29:17.619Z,9.02
2018-11-07T05:30:17.576Z,8.95
2018-11-07T05:31:17.542Z,9.02
2018-11-07T05:32:17.460Z,8.93
2018-11-07T05:33:17.414Z,9.02
2018-11-07T05:34:17.360Z,9.02
2018-11-07T05:35:17.310Z,9.00
2018-11-07T05:36:17.276Z,8.98
2018-11-07T05:37:17.202Z,8.93
2018-11-07T05:38:17.152Z,8.93
2018-11-07T05:39:17.100Z,8.93
2018-11-07T05:40:17.042Z,8.84
2018-11-07T05:41:17.129Z,8.95
2018-11-07T05:42:16.940Z,8.85
2018-11-07T05:43:16.887Z,8.78
2018-11-07T05:44:16.834Z,8.85
2018-11-07T05:45:16.784Z,8.78
2018-11-07T05:46:16.756Z,8.84
2018-11-07T05:47:16.679Z,8.81
2018-11-07T05:48:16.627Z,8.84
2018-11-07T05:49:16.574Z,8.85
2018-11-07T05:50:16.521Z,8.80
2018-11-07T05:51:16.496Z,8.87
2018-11-07T05:52:16.423Z,8.85
2018-11-07T05:53:16.369Z,8.91
2018-11-07T05:54:16.318Z,8.90
2018-11-07T05:55:16.324Z,8.95
2018-11-07T05:56:16.232Z,8.90
2018-11-07T05:57:16.154Z,8.95
2018-11-07T05:58:16.106Z,8.96
2018-11-07T05:59:16.054Z,8.91
2018-11-07T06:00:15.999Z,8.93
2018-11-07T06:01:15.976Z,8.98
2018-11-07T06:02:15.893Z,8.99
2018-11-07T06:03:15.843Z,9.02
2018-11-07T06:04:15.787Z,8.98
2018-11-07T06:05:15.740Z,8.98
2018-11-07T06:06:15.710Z,8.96
2018-11-07T06:07:15.631Z,9.02
2018-11-07T06:08:15.579Z,8.99
2018-11-07T06:09:15.531Z,8.95
2018-11-07T06:10:15.477Z,9.00
2018-11-07T06:11:15.449Z,8.99
2018-11-07T06:12:15.374Z,9.00
2018-11-07T06:13:15.321Z,8.99
2018-11-07T06:14:15.273Z,8.98
2018-11-07T06:15:15.217Z,8.93
2018-11-07T06:16:15.273Z,8.90
2018-11-07T06:17:15.110Z,8.96
2018-11-07T06:18:15.057Z,8.93
2018-11-07T06:19:15.006Z,8.90
2018-11-07T06:20:14.959Z,8.84
2018-11-07T06:21:14.926Z,8.88
2018-11-07T06:22:14.852Z,8.80
2018-11-07T06:23:14.801Z,8.96
2018-11-07T06:24:14.820Z,8.95
2018-11-07T06:25:14.691Z,8.90
2018-11-07T06:26:14.667Z,8.90
2018-11-07T06:27:14.588Z,8.96
2018-11-07T06:28:14.542Z,8.99
2018-11-07T06:29:14.480Z,8.93
2018-11-07T06:30:14.430Z,8.98
2018-11-07T06:31:14.401Z,8.99
2018-11-07T06:32:14.327Z,9.00
2018-11-07T06:33:14.273Z,9.00
2018-11-07T06:34:14.266Z,8.96
2018-11-07T06:35:14.170Z,8.99
2018-11-07T06:36:14.150Z,8.99
2018-11-07T06:37:14.065Z,8.96
2018-11-07T06:38:14.014Z,9.03
2018-11-07T06:39:13.961Z,8.93
2018-11-07T06:40:13.911Z,8.99
2018-11-07T06:41:13.858Z,8.99
2018-11-07T06:42:13.830Z,8.99
2018-11-07T06:43:13.752Z,8.93
2018-11-07T06:44:13.697Z,8.99
2018-11-07T06:45:13.649Z,8.91
2018-11-07T06:46:13.594Z,8.93
2018-11-07T06:47:13.567Z,8.90
2018-11-07T06:48:13.490Z,8.91
2018-11-07T06:49:13.445Z,8.90
2018-11-07T06:50:13.387Z,8.80
2018-11-07T06:51:13.339Z,8.82
2018-11-07T06:52:13.305Z,8.84
2018-11-07T06:53:13.228Z,8.85
2018-11-07T06:54:13.175Z,8.96
2018-11-07T06:55:13.170Z,8.85
2018-11-07T06:56:13.081Z,8.82
2018-11-07T06:57:13.041Z,8.84
2018-11-07T06:58:12.967Z,8.84
2018-11-07T06:59:12.916Z,8.91
2018-11-07T07:00:12.862Z,8.88
2018-11-07T07:01:12.846Z,8.85
2018-11-07T07:02:12.786Z,8.84
2018-11-07T07:03:12.704Z,8.85
2018-11-07T07:04:12.658Z,8.84
2018-11-07T07:05:12.601Z,8.87
2018-11-07T07:06:12.552Z,8.85
2018-11-07T07:07:12.531Z,8.90
2018-11-07T07:08:12.447Z,8.84
2018-11-07T07:09:12.395Z,8.91
2018-11-07T07:10:12.342Z,8.82
2018-11-07T07:11:12.288Z,8.88
2018-11-07T07:12:12.256Z,8.84
2018-11-07T07:13:12.184Z,8.93
2018-11-07T07:14:12.129Z,8.88
2018-11-07T07:15:12.078Z,8.95
2018-11-07T07:16:12.026Z,8.96
2018-11-07T07:17:11.996Z,8.96
2018-11-07T07:18:11.970Z,9.00
2018-11-07T07:19:11.868Z,9.05
2018-11-07T07:20:11.839Z,9.02
2018-11-07T07:21:11.766Z,8.99
2018-11-07T07:22:18.841Z,9.05
2018-11-07T07:23:11.671Z,9.08
2018-11-07T07:24:11.610Z,9.15
2018-11-07T07:25:11.561Z,9.22
2018-11-07T07:26:11.505Z,9.21
2018-11-07T07:27:11.475Z,9.21
2018-11-07T07:28:11.403Z,9.28
2018-11-07T07:29:11.346Z,9.29
2018-11-07T07:30:11.296Z,9.34
2018-11-07T07:31:11.246Z,9.44
2018-11-07T07:32:11.219Z,9.49
2018-11-07T07:33:11.243Z,9.42
2018-11-07T07:34:11.091Z,9.51
2018-11-07T07:35:11.036Z,9.54
2018-11-07T07:36:10.983Z,9.61
2018-11-07T07:37:10.962Z,9.61
2018-11-07T07:38:10.876Z,9.67
2018-11-07T07:39:10.832Z,9.72
2018-11-07T07:40:10.776Z,9.72
2018-11-07T07:41:10.725Z,9.79
2018-11-07T07:42:10.701Z,9.86
2018-11-07T07:43:10.620Z,9.94
2018-11-07T07:44:10.574Z,9.91
2018-11-07T07:45:10.518Z,9.94
2018-11-07T07:46:10.473Z,9.97
2018-11-07T07:47:10.441Z,10.15
2018-11-07T07:48:10.360Z,10.15
2018-11-07T07:49:10.377Z,10.18
2018-11-07T07:50:10.269Z,10.28
2018-11-07T07:51:10.207Z,10.18
2018-11-07T07:52:10.200Z,10.27
2018-11-07T07:53:10.250Z,10.35
2018-11-07T07:54:10.062Z,10.38
2018-11-07T07:55:10.003Z,10.43
2018-11-07T07:56:09.952Z,10.54
2018-11-07T07:57:09.921Z,10.54
2018-11-07T07:58:09.848Z,10.57
2018-11-07T07:59:09.798Z,10.57
2018-11-07T08:00:09.744Z,10.67
2018-11-07T08:01:09.694Z,10.70
2018-11-07T08:02:09.672Z,10.71
2018-11-07T08:03:09.592Z,10.74
2018-11-07T08:04:09.542Z,10.71
2018-11-07T08:05:09.488Z,10.77
2018-11-07T08:06:09.448Z,10.78
2018-11-07T08:07:09.540Z,10.74
2018-11-07T08:08:09.335Z,10.90
2018-11-07T08:09:09.285Z,10.92
2018-11-07T08:10:09.233Z,11.01
2018-11-07T08:11:09.187Z,10.96
2018-11-07T08:12:09.134Z,11.00
2018-11-07T08:13:09.103Z,11.01
2018-11-07T08:14:09.171Z,11.03
2018-11-07T08:15:08.979Z,11.08
2018-11-07T08:16:08.932Z,11.03
2018-11-07T08:17:08.874Z,11.11
2018-11-07T08:18:08.857Z,11.20
2018-11-07T08:19:08.773Z,11.10
2018-11-07T08:20:08.727Z,11.10
2018-11-07T08:21:08.688Z,11.22
2018-11-07T08:22:08.621Z,11.22
2018-11-07T08:23:08.603Z,11.25
2018-11-07T08:24:08.521Z,11.19
2018-11-07T08:25:08.472Z,11.23
2018-11-07T08:26:08.424Z,11.28
2018-11-07T08:27:08.366Z,11.22
2018-11-07T08:28:08.344Z,11.29
2018-11-07T08:29:08.317Z,11.32
2018-11-07T08:30:08.216Z,11.43
2018-11-07T08:31:08.166Z,11.48
2018-11-07T08:32:08.119Z,11.40
2018-11-07T08:33:08.093Z,11.50
2018-11-07T08:34:08.013Z,11.47
2018-11-07T08:35:07.964Z,11.54
2018-11-07T08:36:07.908Z,11.58
2018-11-07T08:37:07.863Z,11.61
2018-11-07T08:38:07.837Z,11.63
2018-11-07T08:39:07.757Z,11.58
2018-11-07T08:40:07.708Z,11.65
2018-11-07T08:41:07.660Z,11.72
2018-11-07T08:42:07.667Z,11.71
2018-11-07T08:43:07.577Z,11.83
2018-11-07T08:44:07.505Z,11.80
2018-11-07T08:45:07.455Z,11.96
2018-11-07T08:46:07.402Z,11.88
2018-11-07T08:47:07.352Z,11.84
2018-11-07T08:48:07.370Z,11.88
2018-11-07T08:49:07.255Z,11.91
2018-11-07T08:50:07.201Z,12.05
2018-11-07T08:51:07.154Z,12.09
2018-11-07T08:52:07.098Z,12.06
2018-11-07T08:53:07.071Z,12.10
2018-11-07T08:54:06.999Z,12.13
2018-11-07T08:55:07.036Z,12.20
2018-11-07T08:56:06.897Z,12.28
2018-11-07T08:57:06.851Z,12.27
2018-11-07T08:58:06.824Z,12.30
2018-11-07T08:59:06.753Z,12.33
2018-11-07T09:00:06.697Z,12.33
2018-11-07T09:01:06.656Z,12.33
2018-11-07T09:02:06.641Z,12.40
2018-11-07T09:03:06.575Z,12.39
2018-11-07T09:04:06.495Z,12.40
2018-11-07T09:05:06.448Z,12.53
2018-11-07T09:06:06.395Z,12.51
2018-11-07T09:07:06.356Z,12.51
2018-11-07T09:08:06.318Z,12.65
2018-11-07T09:09:06.248Z,12.64
2018-11-07T09:10:06.198Z,12.60
2018-11-07T09:11:06.144Z,12.78
2018-11-07T09:12:06.135Z,12.76
2018-11-07T09:13:06.069Z,12.73
2018-11-07T09:14:06.035Z,12.78
2018-11-07T09:15:05.968Z,12.85
2018-11-07T09:16:05.899Z,12.76
2018-11-07T09:17:05.844Z,12.90
2018-11-07T09:18:05.821Z,12.94
2018-11-07T09:19:05.746Z,12.85
2018-11-07T09:20:05.727Z,12.96
2018-11-07T09:21:05.646Z,12.97
2018-11-07T09:22:05.597Z,12.94
2018-11-07T09:23:05.569Z,13.00
2018-11-07T09:24:05.494Z,12.88
2018-11-07T09:25:05.446Z,12.87
2018-11-07T09:26:05.394Z,12.97
2018-11-07T09:27:05.347Z,12.97
2018-11-07T09:28:05.317Z,12.97
2018-11-07T09:29:05.264Z,13.06
2018-11-07T09:30:05.197Z,13.03
2018-11-07T09:31:05.160Z,13.08
2018-11-07T09:32:05.092Z,13.05
2018-11-07T09:33:05.070Z,13.03
2018-11-07T09:34:04.996Z,13.08
2018-11-07T09:35:04.944Z,13.16
2018-11-07T09:36:04.902Z,13.21
2018-11-07T09:37:04.843Z,13.21
2018-11-07T09:38:04.836Z,13.22
2018-11-07T09:39:04.748Z,13.31
2018-11-07T09:40:04.696Z,13.27
2018-11-07T09:41:04.645Z,13.31
2018-11-07T09:42:04.599Z,13.27
2018-11-07T09:43:04.545Z,13.27
2018-11-07T09:44:04.525Z,13.35
2018-11-07T09:45:04.450Z,13.29
2018-11-07T09:46:04.396Z,13.33
2018-11-07T09:47:04.349Z,13.33
2018-11-07T09:48:04.309Z,13.31
2018-11-07T09:49:04.273Z,13.33
2018-11-07T09:50:04.197Z,13.39
2018-11-07T09:51:04.149Z,13.37
2018-11-07T09:52:04.095Z,13.41
2018-11-07T09:53:04.045Z,13.49
2018-11-07T09:54:04.069Z,13.52
2018-11-07T09:55:03.950Z,13.45
2018-11-07T09:56:03.902Z,13.35
2018-11-07T09:57:03.851Z,13.45
2018-11-07T09:58:03.802Z,13.46
2018-11-07T09:59:03.771Z,13.45
2018-11-07T10:00:03.701Z,13.43
2018-11-07T10:01:03.650Z,13.45
2018-11-07T10:02:03.599Z,13.53
2018-11-07T10:03:03.552Z,13.53
2018-11-07T10:04:03.526Z,13.55
2018-11-07T10:05:03.456Z,13.53
2018-11-07T10:06:03.422Z,13.60
2018-11-07T10:07:03.352Z,13.72
2018-11-07T10:08:03.305Z,13.63
2018-11-07T10:09:03.278Z,13.71
2018-11-07T10:10:03.212Z,13.70
2018-11-07T10:11:03.154Z,13.70
2018-11-07T10:12:03.103Z,13.74
2018-11-07T10:13:03.060Z,13.68
2018-11-07T10:14:03.029Z,13.83
2018-11-07T10:15:02.957Z,13.85
2018-11-07T10:16:02.904Z,13.88
2018-11-07T10:17:02.858Z,13.88
2018-11-07T10:18:02.820Z,13.90
2018-11-07T10:19:02.787Z,13.93
2018-11-07T10:20:02.706Z,14.00
2018-11-07T10:21:02.659Z,13.96
2018-11-07T10:22:02.605Z,13.93
2018-11-07T10:23:02.557Z,14.01
2018-11-07T10:24:02.533Z,14.03
2018-11-07T10:25:02.456Z,14.03
2018-11-07T10:26:02.405Z,14.08
2018-11-07T10:27:02.522Z,14.05
2018-11-07T10:28:02.731Z,14.10
2018-11-07T10:29:02.621Z,14.11
2018-11-07T10:30:02.525Z,14.05
2018-11-07T10:31:02.167Z,14.14
2018-11-07T10:32:02.109Z,14.18
2018-11-07T10:33:02.061Z,14.14
2018-11-07T10:34:02.037Z,14.20
2018-11-07T10:35:01.963Z,14.23
2018-11-07T10:36:01.918Z,14.26
2018-11-07T10:37:01.866Z,14.19
2018-11-07T10:38:01.947Z,14.30
2018-11-07T10:39:01.877Z,14.30
2018-11-07T10:40:01.818Z,14.33
2018-11-07T10:41:01.669Z,14.32
2018-11-07T10:42:01.635Z,14.40
2018-11-07T10:43:01.568Z,14.40
2018-11-07T10:44:01.667Z,14.41
2018-11-07T10:45:01.485Z,14.43
2018-11-07T10:46:01.430Z,14.50
2018-11-07T10:47:01.369Z,14.45
2018-11-07T10:48:01.321Z,14.47
2018-11-07T10:49:01.293Z,14.45
2018-11-07T10:50:01.222Z,14.51
2018-11-07T10:51:01.172Z,14.51
2018-11-07T10:52:01.121Z,14.59
2018-11-07T10:53:01.074Z,14.55
2018-11-07T10:54:01.050Z,14.53
2018-11-07T10:55:00.974Z,14.56
2018-11-07T10:56:00.924Z,14.63
2018-11-07T10:57:00.883Z,14.73
2018-11-07T10:58:00.824Z,14.63
2018-11-07T10:59:00.800Z,14.69
2018-11-07T11:00:00.724Z,14.77
2018-11-07T11:01:00.680Z,14.69
2018-11-07T11:02:00.629Z,14.74
2018-11-07T11:03:00.582Z,14.81
2018-11-07T11:04:00.554Z,14.73
2018-11-07T11:05:00.924Z,14.84
2018-11-07T11:06:00.435Z,14.87
2018-11-07T11:07:00.383Z,14.89
2018-11-07T11:08:00.335Z,14.89
2018-11-07T11:09:00.285Z,14.95
2018-11-07T11:10:00.259Z,14.95
2018-11-07T11:11:00.183Z,14.93
2018-11-07T11:12:00.132Z,14.93
2018-11-07T11:13:00.088Z,15.00
2018-11-07T11:14:00.037Z,14.99
2018-11-07T11:15:00.015Z,14.99
2018-11-07T11:15:59.940Z,15.02
2018-11-07T11:17:01.211Z,15.00
2018-11-07T11:17:59.842Z,15.00
2018-11-07T11:18:59.793Z,15.09
2018-11-07T11:19:59.774Z,14.99
2018-11-07T11:20:59.693Z,15.03
2018-11-07T11:21:59.640Z,15.09
2018-11-07T11:22:59.592Z,15.09
2018-11-07T11:23:59.543Z,15.11
2018-11-07T11:24:59.521Z,15.09
2018-11-07T11:25:59.503Z,15.07
2018-11-07T11:26:59.405Z,14.97
2018-11-07T11:27:59.348Z,15.07
2018-11-07T11:28:59.301Z,15.04
2018-11-07T11:29:59.275Z,15.11
2018-11-07T11:30:59.200Z,15.11
2018-11-07T11:31:59.148Z,15.04
2018-11-07T11:32:59.102Z,15.15
2018-11-07T11:33:59.134Z,15.15
2018-11-07T11:34:59.168Z,15.22
2018-11-07T11:35:58.955Z,15.18
2018-11-07T11:36:58.905Z,15.18
2018-11-07T11:37:58.854Z,15.25
2018-11-07T11:38:58.808Z,15.30
2018-11-07T11:39:58.783Z,15.28
2018-11-07T11:40:58.768Z,15.32
2018-11-07T11:41:58.662Z,15.30
2018-11-07T11:42:58.610Z,15.42
2018-11-07T11:43:58.560Z,15.39
2018-11-07T11:44:58.538Z,15.55
2018-11-07T11:45:58.465Z,15.39
2018-11-07T11:46:58.414Z,15.50
2018-11-07T11:47:58.366Z,15.57
2018-11-07T11:48:58.327Z,15.50
2018-11-07T11:49:58.295Z,15.46
2018-11-07T11:50:58.218Z,15.58
2018-11-07T11:51:58.173Z,15.55
2018-11-07T11:52:58.124Z,15.54
2018-11-07T11:53:58.069Z,15.60
2018-11-07T11:54:58.043Z,15.62
2018-11-07T11:55:57.976Z,15.60
2018-11-07T11:56:57.924Z,15.62
2018-11-07T11:57:57.876Z,15.57
2018-11-07T11:58:57.916Z,15.68
2018-11-07T11:59:58.161Z,15.65
2018-11-07T12:00:57.734Z,15.68
2018-11-07T12:01:57.682Z,15.61
2018-11-07T12:02:57.633Z,15.65
2018-11-07T12:03:57.583Z,15.64
2018-11-07T12:04:57.557Z,15.68
2018-11-07T12:05:57.487Z,15.73
2018-11-07T12:06:57.436Z,15.73
2018-11-07T12:07:57.458Z,15.82
2018-11-07T12:08:57.471Z,15.83
2018-11-07T12:09:57.312Z,15.88
2018-11-07T12:10:57.239Z,15.85
2018-11-07T12:11:57.198Z,15.85
2018-11-07T12:12:57.141Z,15.97
2018-11-07T12:13:57.100Z,16.02
2018-11-07T12:14:57.121Z,16.02
2018-11-07T12:15:56.995Z,16.16
2018-11-07T12:16:56.949Z,16.08
2018-11-07T12:17:56.899Z,16.09
2018-11-07T12:18:56.848Z,16.12
2018-11-07T12:19:56.836Z,16.08
2018-11-07T12:20:56.784Z,15.94
2018-11-07T12:21:56.711Z,15.95
2018-11-07T12:22:56.660Z,15.95
2018-11-07T12:23:56.608Z,15.98
2018-11-07T12:24:56.582Z,16.06
2018-11-07T12:25:56.506Z,16.09
2018-11-07T12:26:56.631Z,16.10
2018-11-07T12:27:56.408Z,16.08
2018-11-07T12:28:56.365Z,16.12
2018-11-07T12:29:56.340Z,16.12
2018-11-07T12:30:56.264Z,16.21
2018-11-07T12:31:56.212Z,16.17
2018-11-07T12:32:56.167Z,16.25
2018-11-07T12:33:56.116Z,16.21
2018-11-07T12:34:56.097Z,16.09
2018-11-07T12:35:56.043Z,16.08
2018-11-07T12:36:55.970Z,16.09
2018-11-07T12:37:55.917Z,16.16
2018-11-07T12:38:55.873Z,16.20
2018-11-07T12:39:56.252Z,16.17
2018-11-07T12:40:55.801Z,16.21
2018-11-07T12:41:55.726Z,16.17
2018-11-07T12:42:55.751Z,16.24
2018-11-07T12:43:55.630Z,16.16
2018-11-07T12:44:55.587Z,16.20
2018-11-07T12:45:55.558Z,16.25
2018-11-07T12:46:55.481Z,16.31
2018-11-07T12:47:55.452Z,16.31
2018-11-07T12:48:55.382Z,16.34
2018-11-07T12:49:55.417Z,16.29
2018-11-07T12:50:55.318Z,16.28
2018-11-07T12:51:55.241Z,16.29
2018-11-07T12:52:55.189Z,16.20
2018-11-07T12:53:55.139Z,16.17
2018-11-07T12:54:55.095Z,16.28
2018-11-07T12:55:55.065Z,16.29
2018-11-07T12:56:54.995Z,16.34
2018-11-07T12:57:55.052Z,16.35
2018-11-07T12:58:54.897Z,16.35
2018-11-07T12:59:54.844Z,16.28
2018-11-07T13:00:54.824Z,16.28
2018-11-07T13:01:54.751Z,16.17
2018-11-07T13:02:54.766Z,16.24
2018-11-07T13:03:54.655Z,16.20
2018-11-07T13:04:54.607Z,16.28